createdAt,value
2022-10-11T00:00:03.854Z,83.26
2022-10-11T00:01:03.769Z,83.37
2022-10-11T00:02:01.985Z,83.26
2022-10-11T00:03:02.145Z,83.16
2022-10-11T00:04:01.991Z,82.96
2022-10-11T00:05:01.995Z,83.06
2022-10-11T00:06:02.085Z,83.06
2022-10-11T00:07:02.435Z,83.10
2022-10-11T00:08:02.351Z,83.51
2022-10-11T00:09:02.154Z,83.40
2022-10-11T00:10:02.166Z,83.40
2022-10-11T00:11:02.623Z,83.61
2022-10-11T00:12:03.014Z,83.40
2022-10-11T00:13:02.551Z,83.20
2022-10-11T00:14:02.657Z,82.79
2022-10-11T00:15:02.771Z,82.49
2022-10-11T00:16:03.464Z,82.28
2022-10-11T00:17:02.663Z,82.69
2022-10-11T00:18:05.396Z,83.14
2022-10-11T00:19:02.725Z,83.04
2022-10-11T00:20:02.574Z,83.85
2022-10-11T00:21:03.007Z,83.65
2022-10-11T00:22:02.280Z,83.54
2022-10-11T00:23:02.327Z,83.14
2022-10-11T00:24:02.258Z,82.97
2022-10-11T00:25:01.914Z,82.97
2022-10-11T00:26:02.211Z,83.18
2022-10-11T00:27:02.443Z,83.48
2022-10-11T00:28:02.955Z,83.28
2022-10-11T00:29:02.727Z,82.97
2022-10-11T00:30:02.485Z,82.87
2022-10-11T00:31:03.357Z,82.87
2022-10-11T00:32:02.445Z,83.18
2022-10-11T00:33:02.824Z,83.32
2022-10-11T00:34:02.504Z,83.01
2022-10-11T00:35:03.030Z,83.01
2022-10-11T00:36:02.940Z,82.91
2022-10-11T00:37:02.206Z,82.81
2022-10-11T00:38:02.019Z,82.60
2022-10-11T00:39:02.293Z,82.50
2022-10-11T00:40:02.066Z,82.40
2022-10-11T00:41:01.720Z,82.43
2022-10-11T00:42:02.176Z,83.05
2022-10-11T00:43:02.593Z,83.05
2022-10-11T00:44:02.555Z,83.15
2022-10-11T00:45:02.525Z,82.84
2022-10-11T00:46:02.507Z,82.75
2022-10-11T00:47:02.801Z,83.05
2022-10-11T00:48:02.718Z,83.97
2022-10-11T00:49:02.322Z,83.91
2022-10-11T00:50:02.628Z,84.01
2022-10-11T00:51:03.173Z,83.60
2022-10-11T00:52:02.073Z,83.09
2022-10-11T00:53:02.494Z,83.09
2022-10-11T00:54:02.142Z,83.39
2022-10-11T00:55:02.213Z,82.98
2022-10-11T00:56:02.377Z,83.19
2022-10-11T00:57:02.338Z,83.09
2022-10-11T00:58:02.703Z,83.91
2022-10-11T00:59:02.543Z,84.05
2022-10-11T01:00:02.267Z,84.25
2022-10-11T01:01:02.789Z,84.25
2022-10-11T01:02:02.328Z,84.66
2022-10-11T01:03:02.695Z,85.63
2022-10-11T01:04:02.400Z,86.24
2022-10-11T01:05:27.712Z,86.44
2022-10-11T01:06:02.817Z,86.44
2022-10-11T01:07:02.581Z,86.04
2022-10-11T01:08:03.001Z,86.34
2022-10-11T01:09:02.998Z,86.75
2022-10-11T01:10:02.884Z,86.99
2022-10-11T01:11:02.591Z,87.41
2022-10-11T01:12:03.085Z,86.79
2022-10-11T01:13:03.139Z,86.58
2022-10-11T01:14:03.409Z,86.38
2022-10-11T01:15:03.517Z,85.87
2022-10-11T01:16:03.660Z,85.46
2022-10-11T01:17:02.696Z,85.25
2022-10-11T01:18:02.365Z,85.15
2022-10-11T01:19:02.946Z,85.05
2022-10-11T01:20:02.925Z,84.74
2022-10-11T01:21:02.267Z,85.15
2022-10-11T01:22:02.854Z,85.05
2022-10-11T01:23:03.055Z,84.99
2022-10-11T01:24:08.180Z,84.68
2022-10-11T01:25:02.818Z,84.37
2022-10-11T01:26:03.672Z,84.17
2022-10-11T01:27:03.552Z,84.68
2022-10-11T01:28:03.226Z,85.50
2022-10-11T01:29:03.190Z,84.68
2022-10-11T01:30:02.934Z,84.27
2022-10-11T01:31:03.187Z,84.27
2022-10-11T01:32:03.062Z,83.96
2022-10-11T01:33:02.625Z,84.27
2022-10-11T01:34:03.053Z,84.99
2022-10-11T01:35:03.013Z,86.46
2022-10-11T01:36:02.944Z,87.38
2022-10-11T01:37:02.951Z,88.45
2022-10-11T01:38:02.619Z,88.14
2022-10-11T01:39:03.046Z,87.53
2022-10-11T01:40:03.213Z,88.04
2022-10-11T01:41:02.752Z,88.56
2022-10-11T01:42:03.239Z,88.80
2022-10-11T01:43:03.403Z,88.08
2022-10-11T01:44:03.167Z,87.46
2022-10-11T01:45:03.028Z,87.26
2022-10-11T01:46:03.815Z,87.37
2022-10-11T01:47:02.679Z,89.42
2022-10-11T01:48:02.844Z,87.98
2022-10-11T01:49:02.969Z,88.49
2022-10-11T01:50:02.346Z,88.90
2022-10-11T01:51:02.463Z,88.70
2022-10-11T01:52:02.881Z,88.70
2022-10-11T01:53:03.245Z,88.29
2022-10-11T01:54:02.563Z,88.59
2022-10-11T01:55:09.518Z,88.49
2022-10-11T01:56:03.555Z,88.39
2022-10-11T01:57:03.168Z,89.66
2022-10-11T01:58:03.104Z,89.36
2022-10-11T01:59:03.641Z,88.49
2022-10-11T02:00:03.624Z,87.77
2022-10-11T02:01:03.602Z,87.71
2022-10-11T02:02:02.838Z,87.51
2022-10-11T02:03:02.762Z,87.10
2022-10-11T02:04:03.153Z,87.40
2022-10-11T02:05:02.960Z,86.89
2022-10-11T02:06:03.439Z,87.10
2022-10-11T02:07:02.957Z,86.68
2022-10-11T02:08:03.351Z,86.38
2022-10-11T02:09:07.794Z,86.27
2022-10-11T02:10:03.341Z,85.52
2022-10-11T02:11:02.974Z,85.35
2022-10-11T02:12:03.014Z,85.55
2022-10-11T02:13:03.318Z,86.58
2022-10-11T02:14:03.006Z,89.76
2022-10-11T02:15:03.399Z,89.15
2022-10-11T02:16:03.812Z,90.59
2022-10-11T02:17:02.870Z,89.04
2022-10-11T02:18:03.001Z,89.25
2022-10-11T02:19:02.403Z,88.02
2022-10-11T02:20:02.794Z,87.92
2022-10-11T02:21:02.695Z,88.23
2022-10-11T02:22:02.796Z,88.64
2022-10-11T02:23:02.547Z,88.12
2022-10-11T02:24:02.657Z,89.25
2022-10-11T02:25:02.638Z,90.22
2022-10-11T02:26:03.026Z,90.94
2022-10-11T02:27:02.619Z,90.73
2022-10-11T02:28:02.510Z,90.73
2022-10-11T02:29:02.571Z,92.38
2022-10-11T02:30:03.016Z,92.69
2022-10-11T02:31:03.033Z,91.14
2022-10-11T02:32:02.993Z,91.66
2022-10-11T02:33:03.223Z,92.38
2022-10-11T02:34:03.008Z,93.14
2022-10-11T02:35:02.818Z,93.96
2022-10-11T02:36:03.818Z,93.14
2022-10-11T02:37:03.619Z,94.07
2022-10-11T02:38:03.735Z,93.76
2022-10-11T02:39:03.646Z,93.04
2022-10-11T02:40:03.606Z,94.07
2022-10-11T02:41:03.394Z,94.48
2022-10-11T02:42:02.596Z,93.35
2022-10-11T02:43:02.699Z,92.63
2022-10-11T02:44:02.673Z,92.83
2022-10-11T02:45:02.426Z,93.24
2022-10-11T02:46:03.213Z,93.35
2022-10-11T02:47:02.797Z,93.76
2022-10-11T02:48:02.965Z,94.07
2022-10-11T02:49:02.652Z,94.37
2022-10-11T02:50:02.588Z,94.58
2022-10-11T02:51:03.015Z,94.58
2022-10-11T02:52:03.476Z,95.50
2022-10-11T02:53:02.975Z,93.55
2022-10-11T02:54:03.266Z,92.52
2022-10-11T02:55:03.162Z,92.01
2022-10-11T02:56:03.536Z,92.32
2022-10-11T02:57:03.581Z,92.83
2022-10-11T02:58:03.694Z,93.44
2022-10-11T02:59:03.488Z,93.76
2022-10-11T03:00:03.749Z,93.90
2022-10-11T03:01:03.126Z,93.14
2022-10-11T03:02:02.402Z,92.73
2022-10-11T03:03:02.042Z,92.21
2022-10-11T03:04:01.806Z,91.49
2022-10-11T03:05:02.081Z,91.19
2022-10-11T03:06:02.574Z,90.78
2022-10-11T03:07:02.471Z,90.47
2022-10-11T03:08:02.960Z,89.54
2022-10-11T03:09:02.551Z,89.03
2022-10-11T03:10:02.953Z,89.23
2022-10-11T03:11:02.627Z,90.06
2022-10-11T03:12:03.004Z,90.72
2022-10-11T03:13:02.908Z,91.44
2022-10-11T03:14:02.638Z,92.25
2022-10-11T03:15:03.014Z,92.25
2022-10-11T03:16:03.804Z,92.61
2022-10-11T03:17:23.770Z,92.30
2022-10-11T03:18:02.240Z,92.61
2022-10-11T03:19:02.000Z,92.61
2022-10-11T03:20:02.413Z,92.40
2022-10-11T03:21:02.095Z,92.10
2022-10-11T03:22:02.608Z,91.68
2022-10-11T03:23:02.325Z,91.17
2022-10-11T03:24:02.260Z,90.75
2022-10-11T03:25:04.462Z,90.66
2022-10-11T03:26:03.209Z,90.03
2022-10-11T03:27:02.645Z,89.94
2022-10-11T03:28:02.894Z,90.45
2022-10-11T03:29:02.734Z,90.34
2022-10-11T03:30:02.851Z,90.24
2022-10-11T03:31:02.501Z,90.55
2022-10-11T03:32:02.613Z,90.55
2022-10-11T03:33:02.250Z,90.96
2022-10-11T03:34:02.448Z,90.86
2022-10-11T03:35:02.231Z,91.83
2022-10-11T03:36:02.765Z,91.52
2022-10-11T03:37:02.863Z,90.66
2022-10-11T03:38:02.682Z,91.00
2022-10-11T03:39:02.540Z,90.66
2022-10-11T03:40:02.873Z,91.00
2022-10-11T03:41:02.440Z,91.11
2022-10-11T03:42:01.839Z,90.90
2022-10-11T03:43:01.923Z,91.83
2022-10-11T03:44:02.311Z,92.55
2022-10-11T03:45:01.958Z,92.14
2022-10-11T03:46:02.285Z,91.31
2022-10-11T03:47:02.017Z,90.59
2022-10-11T03:48:02.017Z,90.34
2022-10-11T03:49:02.430Z,90.14
2022-10-11T03:50:01.985Z,89.52
2022-10-11T03:51:02.036Z,89.42
2022-10-11T03:52:02.809Z,90.66
2022-10-11T03:53:02.417Z,89.62
2022-10-11T03:54:02.888Z,89.22
2022-10-11T03:55:02.404Z,89.01
2022-10-11T03:56:07.392Z,89.83
2022-10-11T03:57:01.792Z,90.14
2022-10-11T03:58:02.023Z,90.45
2022-10-11T03:59:01.790Z,90.45
2022-10-11T04:00:01.713Z,90.66
2022-10-11T04:01:02.239Z,91.06
2022-10-11T04:02:03.354Z,91.47
2022-10-11T04:03:03.093Z,91.78
2022-10-11T04:04:03.193Z,91.38
2022-10-11T04:05:03.600Z,91.02
2022-10-11T04:06:03.835Z,91.33
2022-10-11T04:07:03.156Z,92.16
2022-10-11T04:08:02.866Z,91.85
2022-10-11T04:09:02.559Z,91.85
2022-10-11T04:10:02.841Z,92.25
2022-10-11T04:11:02.542Z,93.18
2022-10-11T04:12:02.840Z,93.70
2022-10-11T04:13:03.008Z,93.08
2022-10-11T04:14:03.396Z,92.36
2022-10-11T04:15:02.940Z,91.70
2022-10-11T04:16:03.852Z,92.01
2022-10-11T04:17:03.198Z,92.63
2022-10-11T04:18:03.347Z,92.93
2022-10-11T04:19:03.544Z,92.93
2022-10-11T04:20:02.957Z,93.04
2022-10-11T04:21:03.304Z,93.65
2022-10-11T04:22:03.006Z,93.86
2022-10-11T04:23:02.837Z,93.96
2022-10-11T04:24:02.965Z,94.58
2022-10-11T04:25:02.638Z,94.37
2022-10-11T04:26:03.599Z,94.07
2022-10-11T04:27:03.267Z,93.71
2022-10-11T04:28:03.653Z,93.71
2022-10-11T04:29:03.364Z,93.40
2022-10-11T04:30:03.751Z,92.89
2022-10-11T04:31:03.154Z,92.69
2022-10-11T04:32:02.606Z,92.58
2022-10-11T04:33:02.476Z,92.54
2022-10-11T04:34:02.765Z,92.44
2022-10-11T04:35:04.657Z,93.51
2022-10-11T04:36:03.047Z,93.87
2022-10-11T04:37:03.087Z,93.67
2022-10-11T04:38:02.898Z,92.95
2022-10-11T04:39:02.801Z,92.33
2022-10-11T04:40:03.228Z,92.23
2022-10-11T04:41:02.759Z,93.77
2022-10-11T04:42:03.827Z,93.32
2022-10-11T04:43:03.650Z,92.29
2022-10-11T04:44:03.619Z,91.88
2022-10-11T04:45:03.360Z,92.50
2022-10-11T04:46:04.186Z,92.70
2022-10-11T04:47:03.052Z,92.29
2022-10-11T04:48:03.157Z,91.99
2022-10-11T04:49:02.907Z,91.42
2022-10-11T04:50:03.208Z,90.91
2022-10-11T04:51:02.990Z,91.42
2022-10-11T04:52:03.660Z,92.14
2022-10-11T04:53:03.516Z,91.33
2022-10-11T04:54:03.633Z,90.81
2022-10-11T04:55:03.366Z,90.40
2022-10-11T04:56:04.077Z,90.09
2022-10-11T04:57:03.404Z,89.78
2022-10-11T04:58:03.802Z,89.69
2022-10-11T04:59:03.397Z,89.64
2022-10-11T05:00:03.774Z,90.36
2022-10-11T05:01:03.177Z,90.67
2022-10-11T05:02:02.645Z,90.36
2022-10-11T05:03:02.644Z,90.16
2022-10-11T05:04:02.642Z,91.59
2022-10-11T05:05:03.074Z,92.51
2022-10-11T05:06:05.644Z,91.69
2022-10-11T05:07:03.165Z,92.93
2022-10-11T05:08:03.237Z,92.31
2022-10-11T05:09:03.060Z,91.59
2022-10-11T05:10:02.895Z,91.28
2022-10-11T05:11:03.310Z,91.38
2022-10-11T05:12:03.001Z,91.55
2022-10-11T05:13:02.755Z,91.03
2022-10-11T05:14:02.913Z,90.22
2022-10-11T05:15:02.950Z,90.11
2022-10-11T05:16:05.879Z,91.03
2022-10-11T05:17:02.578Z,92.36
2022-10-11T05:18:02.962Z,91.96
2022-10-11T05:19:02.606Z,91.75
2022-10-11T05:20:02.804Z,92.78
2022-10-11T05:21:02.490Z,92.78
2022-10-11T05:22:02.864Z,91.91
2022-10-11T05:23:02.661Z,91.09
2022-10-11T05:24:02.847Z,91.20
2022-10-11T05:25:02.969Z,91.82
2022-10-11T05:26:03.324Z,91.20
2022-10-11T05:27:03.618Z,91.82
2022-10-11T05:28:02.626Z,91.82
2022-10-11T05:29:02.870Z,91.71
2022-10-11T05:30:02.954Z,92.63
2022-10-11T05:31:02.615Z,92.74
2022-10-11T05:32:03.202Z,92.83
2022-10-11T05:33:03.617Z,92.43
2022-10-11T05:34:03.650Z,92.83
2022-10-11T05:35:03.260Z,92.63
2022-10-11T05:36:03.425Z,92.53
2022-10-11T05:37:03.714Z,92.22
2022-10-11T05:38:03.296Z,90.99
2022-10-11T05:39:03.632Z,91.82
2022-10-11T05:40:03.534Z,90.99
2022-10-11T05:41:03.449Z,90.99
2022-10-11T05:42:05.506Z,91.82
2022-10-11T05:43:02.694Z,92.22
2022-10-11T05:44:03.170Z,92.43
2022-10-11T05:45:02.688Z,92.22
2022-10-11T05:46:03.759Z,92.43
2022-10-11T05:47:03.280Z,91.82
2022-10-11T05:48:02.956Z,92.02
2022-10-11T05:49:03.296Z,92.08
2022-10-11T05:50:02.820Z,92.28
2022-10-11T05:51:02.780Z,92.38
2022-10-11T05:52:02.869Z,92.38
2022-10-11T05:53:03.086Z,92.59
2022-10-11T05:54:03.266Z,92.63
2022-10-11T05:55:03.124Z,92.28
2022-10-11T05:56:03.798Z,92.08
2022-10-11T05:57:03.475Z,91.97
2022-10-11T05:58:03.407Z,91.87
2022-10-11T05:59:03.620Z,92.18
2022-10-11T06:00:03.289Z,92.38
2022-10-11T06:01:03.746Z,92.38
2022-10-11T06:02:03.152Z,92.08
2022-10-11T06:03:02.914Z,92.08
2022-10-11T06:04:03.193Z,92.28
2022-10-11T06:05:02.745Z,92.18
2022-10-11T06:06:03.383Z,92.28
2022-10-11T06:07:02.746Z,92.18
2022-10-11T06:08:02.382Z,92.49
2022-10-11T06:09:02.783Z,91.77
2022-10-11T06:10:02.447Z,90.75
2022-10-11T06:11:02.282Z,91.36
2022-10-11T06:12:02.615Z,91.46
2022-10-11T06:13:03.060Z,91.87
2022-10-11T06:14:02.721Z,91.26
2022-10-11T06:15:02.926Z,91.46
2022-10-11T06:16:03.696Z,90.44
2022-10-11T06:17:02.236Z,91.87
2022-10-11T06:18:02.482Z,91.63
2022-10-11T06:19:02.595Z,92.55
2022-10-11T06:20:02.762Z,90.60
2022-10-11T06:21:02.489Z,89.89
2022-10-11T06:22:02.479Z,89.68
2022-10-11T06:23:02.755Z,91.22
2022-10-11T06:24:02.655Z,91.93
2022-10-11T06:25:02.385Z,92.24
2022-10-11T06:26:03.041Z,92.24
2022-10-11T06:27:02.954Z,92.55
2022-10-11T06:28:03.128Z,93.41
2022-10-11T06:29:02.701Z,93.51
2022-10-11T06:30:03.108Z,93.62
2022-10-11T06:31:03.004Z,93.47
2022-10-11T06:32:02.922Z,93.06
2022-10-11T06:33:04.978Z,92.75
2022-10-11T06:34:02.979Z,92.65
2022-10-11T06:35:02.921Z,92.55
2022-10-11T06:36:03.645Z,93.16
2022-10-11T06:37:02.257Z,93.37
2022-10-11T06:38:02.454Z,93.16
2022-10-11T06:39:02.268Z,93.47
2022-10-11T06:40:02.498Z,93.88
2022-10-11T06:41:02.272Z,93.67
2022-10-11T06:42:02.988Z,93.98
2022-10-11T06:43:02.582Z,93.57
2022-10-11T06:44:02.932Z,93.57
2022-10-11T06:45:03.010Z,93.57
2022-10-11T06:46:02.701Z,93.47
2022-10-11T06:47:03.305Z,93.47
2022-10-11T06:48:03.195Z,93.37
2022-10-11T06:49:03.208Z,93.57
2022-10-11T06:50:03.083Z,93.67
2022-10-11T06:51:03.398Z,94.08
2022-10-11T06:52:02.440Z,94.29
2022-10-11T06:53:02.414Z,94.49
2022-10-11T06:54:02.626Z,94.08
2022-10-11T06:55:02.049Z,93.98
2022-10-11T06:56:02.689Z,93.88
2022-10-11T06:57:03.077Z,93.84
2022-10-11T06:58:03.257Z,93.63
2022-10-11T06:59:03.133Z,93.63
2022-10-11T07:00:03.166Z,93.52
2022-10-11T07:01:02.766Z,93.73
2022-10-11T07:02:02.025Z,93.52
2022-10-11T07:03:02.035Z,93.12
2022-10-11T07:04:02.638Z,92.71
2022-10-11T07:05:02.103Z,92.30
2022-10-11T07:06:02.795Z,92.25
2022-10-11T07:07:02.469Z,92.05
2022-10-11T07:08:02.504Z,91.95
2022-10-11T07:09:02.234Z,92.97
2022-10-11T07:10:02.743Z,92.87
2022-10-11T07:11:02.842Z,92.87
2022-10-11T07:12:03.175Z,92.87
2022-10-11T07:13:03.505Z,92.87
2022-10-11T07:14:03.256Z,93.28
2022-10-11T07:15:02.861Z,92.66
2022-10-11T07:16:03.757Z,92.56
2022-10-11T07:17:01.979Z,92.25
2022-10-11T07:18:02.405Z,93.07
2022-10-11T07:19:02.553Z,93.28
2022-10-11T07:20:02.541Z,93.59
2022-10-11T07:21:02.131Z,92.93
2022-10-11T07:22:02.522Z,93.13
2022-10-11T07:23:02.276Z,92.62
2022-10-11T07:24:02.559Z,92.42
2022-10-11T07:25:02.229Z,92.01
2022-10-11T07:26:02.483Z,92.21
2022-10-11T07:27:02.447Z,92.83
2022-10-11T07:28:02.296Z,92.78
2022-10-11T07:29:02.286Z,92.72
2022-10-11T07:30:02.613Z,92.88
2022-10-11T07:31:02.587Z,92.88
2022-10-11T07:32:02.873Z,93.09
2022-10-11T07:33:02.836Z,93.09
2022-10-11T07:34:02.395Z,93.09
2022-10-11T07:35:02.908Z,93.29
2022-10-11T07:36:03.277Z,93.29
2022-10-11T07:37:02.881Z,93.40
2022-10-11T07:38:02.761Z,93.29
2022-10-11T07:39:02.643Z,93.50
2022-10-11T07:40:02.768Z,93.80
2022-10-11T07:41:03.019Z,94.11
2022-10-11T07:42:03.060Z,94.21
2022-10-11T07:43:02.986Z,94.21
2022-10-11T07:44:02.917Z,94.11
2022-10-11T07:45:03.280Z,94.21
2022-10-11T07:46:03.276Z,94.62
2022-10-11T07:47:05.759Z,94.52
2022-10-11T07:48:03.269Z,94.62
2022-10-11T07:49:02.878Z,94.32
2022-10-11T07:50:02.977Z,94.52
2022-10-11T07:51:03.436Z,94.27
2022-10-11T07:52:02.806Z,94.11
2022-10-11T07:53:02.663Z,94.11
2022-10-11T07:54:07.036Z,94.27
2022-10-11T07:55:02.272Z,93.96
2022-10-11T07:56:03.117Z,93.96
2022-10-11T07:57:02.692Z,93.86
2022-10-11T07:58:02.786Z,94.07
2022-10-11T07:59:02.649Z,93.86
2022-10-11T08:00:02.373Z,94.07
2022-10-11T08:01:02.782Z,94.07
2022-10-11T08:02:03.017Z,93.86
2022-10-11T08:03:02.946Z,93.82
2022-10-11T08:04:02.931Z,93.82
2022-10-11T08:05:03.569Z,93.31
2022-10-11T08:06:03.910Z,93.00
2022-10-11T08:07:02.487Z,92.80
2022-10-11T08:08:02.512Z,92.45
2022-10-11T08:09:02.332Z,92.14
2022-10-11T08:10:02.732Z,92.04
2022-10-11T08:11:02.625Z,92.55
2022-10-11T08:12:02.903Z,92.14
2022-10-11T08:13:04.505Z,91.74
2022-10-11T08:14:02.518Z,91.94
2022-10-11T08:15:02.598Z,91.94
2022-10-11T08:16:03.213Z,92.29
2022-10-11T08:17:03.126Z,92.69
2022-10-11T08:18:02.819Z,92.55
2022-10-11T08:19:02.609Z,92.14
2022-10-11T08:20:02.581Z,92.49
2022-10-11T08:21:03.048Z,92.45
2022-10-11T08:22:03.180Z,92.14
2022-10-11T08:23:03.295Z,92.19
2022-10-11T08:24:02.989Z,92.55
2022-10-11T08:25:03.181Z,92.35
2022-10-11T08:26:03.813Z,92.45
2022-10-11T08:27:03.372Z,92.14
2022-10-11T08:28:03.315Z,92.24
2022-10-11T08:29:03.579Z,92.45
2022-10-11T08:30:03.222Z,92.45
2022-10-11T08:31:03.698Z,92.35
2022-10-11T08:32:02.308Z,92.04
2022-10-11T08:33:07.595Z,91.94
2022-10-11T08:34:02.445Z,91.74
2022-10-11T08:35:02.352Z,91.74
2022-10-11T08:36:02.831Z,92.04
2022-10-11T08:37:03.064Z,92.14
2022-10-11T08:38:02.705Z,92.14
2022-10-11T08:39:02.804Z,92.55
2022-10-11T08:40:02.822Z,92.76
2022-10-11T08:41:02.572Z,92.30
2022-10-11T08:42:03.424Z,92.10
2022-10-11T08:43:03.475Z,92.10
2022-10-11T08:44:02.967Z,91.79
2022-10-11T08:45:11.057Z,91.59
2022-10-11T08:46:03.668Z,91.24
2022-10-11T08:47:02.599Z,91.08
2022-10-11T08:48:02.881Z,91.03
2022-10-11T08:49:03.154Z,91.03
2022-10-11T08:50:03.108Z,90.94
2022-10-11T08:51:03.009Z,90.63
2022-10-11T08:52:03.086Z,90.73
2022-10-11T08:53:02.724Z,90.83
2022-10-11T08:54:07.398Z,90.83
2022-10-11T08:55:02.767Z,90.83
2022-10-11T08:56:03.038Z,90.73
2022-10-11T08:57:03.440Z,90.94
2022-10-11T08:58:02.996Z,90.73
2022-10-11T08:59:03.337Z,90.73
2022-10-11T09:00:03.505Z,90.53
2022-10-11T09:01:03.058Z,90.42
2022-10-11T09:02:03.802Z,90.53
2022-10-11T09:03:08.580Z,90.94
2022-10-11T09:04:03.489Z,91.24
2022-10-11T09:05:03.263Z,91.14
2022-10-11T09:06:04.240Z,90.94
2022-10-11T09:07:05.063Z,90.53
2022-10-11T09:08:03.266Z,90.22
2022-10-11T09:09:03.103Z,90.42
2022-10-11T09:10:02.828Z,90.22
2022-10-11T09:11:03.171Z,90.63
2022-10-11T09:12:03.285Z,90.53
2022-10-11T09:13:03.183Z,90.88
2022-10-11T09:14:03.531Z,90.98
2022-10-11T09:15:03.217Z,90.98
2022-10-11T09:16:03.777Z,90.88
2022-10-11T09:17:02.964Z,90.98
2022-10-11T09:18:02.533Z,91.18
2022-10-11T09:19:02.851Z,90.98
2022-10-11T09:20:02.888Z,90.98
2022-10-11T09:21:02.396Z,91.08
2022-10-11T09:22:03.487Z,91.28
2022-10-11T09:23:02.875Z,91.89
2022-10-11T09:24:03.391Z,91.24
2022-10-11T09:25:03.314Z,91.03
2022-10-11T09:26:03.262Z,90.42
2022-10-11T09:27:03.083Z,90.94
2022-10-11T09:28:04.093Z,90.94
2022-10-11T09:29:03.185Z,90.73
2022-10-11T09:30:03.640Z,90.83
2022-10-11T09:31:03.296Z,90.38
2022-10-11T09:32:03.853Z,90.28
2022-10-11T09:33:03.379Z,90.08
2022-10-11T09:34:03.322Z,89.57
2022-10-11T09:35:03.352Z,89.47
2022-10-11T09:36:03.907Z,89.42
2022-10-11T09:37:03.057Z,89.01
2022-10-11T09:38:03.041Z,89.32
2022-10-11T09:39:06.458Z,89.42
2022-10-11T09:40:02.559Z,89.42
2022-10-11T09:41:02.776Z,89.48
2022-10-11T09:42:02.454Z,89.07
2022-10-11T09:43:02.965Z,88.57
2022-10-11T09:44:02.477Z,88.73
2022-10-11T09:45:02.609Z,88.32
2022-10-11T09:46:02.845Z,87.92
2022-10-11T09:47:03.127Z,88.12
2022-10-11T09:48:03.461Z,88.12
2022-10-11T09:49:03.024Z,88.28
2022-10-11T09:50:03.068Z,87.67
2022-10-11T09:51:03.337Z,88.18
2022-10-11T09:52:02.627Z,87.98
2022-10-11T09:53:03.184Z,87.63
2022-10-11T09:54:02.825Z,87.23
2022-10-11T09:55:03.127Z,86.82
2022-10-11T09:56:03.011Z,86.71
2022-10-11T09:57:03.758Z,86.51
2022-10-11T09:58:03.248Z,86.31
2022-10-11T09:59:03.664Z,86.07
2022-10-11T10:00:03.660Z,86.68
2022-10-11T10:01:07.911Z,86.77
2022-10-11T10:02:02.941Z,86.13
2022-10-11T10:03:03.247Z,85.11
2022-10-11T10:04:02.813Z,84.40
2022-10-11T10:05:02.984Z,84.84
2022-10-11T10:06:03.522Z,85.05
2022-10-11T10:07:02.720Z,85.11
2022-10-11T10:08:04.790Z,84.44
2022-10-11T10:09:02.955Z,84.13
2022-10-11T10:10:02.425Z,84.74
2022-10-11T10:11:02.736Z,84.64
2022-10-11T10:12:03.046Z,85.05
2022-10-11T10:13:03.026Z,85.15
2022-10-11T10:14:03.261Z,84.95
2022-10-11T10:15:03.339Z,84.74
2022-10-11T10:16:03.398Z,85.05
2022-10-11T10:17:02.639Z,85.05
2022-10-11T10:18:02.897Z,85.46
2022-10-11T10:19:02.839Z,84.91
2022-10-11T10:20:02.800Z,84.70
2022-10-11T10:21:02.846Z,84.80
2022-10-11T10:22:03.511Z,84.50
2022-10-11T10:23:03.092Z,83.99
2022-10-11T10:24:03.391Z,84.60
2022-10-11T10:25:03.669Z,84.91
2022-10-11T10:26:03.862Z,84.66
2022-10-11T10:27:02.827Z,83.95
2022-10-11T10:28:02.670Z,84.05
2022-10-11T10:29:02.769Z,83.45
2022-10-11T10:30:02.886Z,83.54
2022-10-11T10:31:02.886Z,83.95
2022-10-11T10:32:18.961Z,83.51
2022-10-11T10:33:03.188Z,84.32
2022-10-11T10:34:03.556Z,84.22
2022-10-11T10:35:03.062Z,82.70
2022-10-11T10:36:03.367Z,83.10
2022-10-11T10:37:03.282Z,83.61
2022-10-11T10:38:03.082Z,82.80
2022-10-11T10:39:03.077Z,82.56
2022-10-11T10:40:03.032Z,82.86
2022-10-11T10:41:03.140Z,84.48
2022-10-11T10:42:03.377Z,84.58
2022-10-11T10:43:03.107Z,84.24
2022-10-11T10:44:03.150Z,83.53
2022-10-11T10:45:04.151Z,82.92
2022-10-11T10:46:04.081Z,82.78
2022-10-11T10:47:02.883Z,82.38
2022-10-11T10:48:02.697Z,82.28
2022-10-11T10:50:03.238Z,81.52
2022-10-11T10:51:07.079Z,79.80
2022-10-11T10:52:03.176Z,81.02
2022-10-11T10:53:03.390Z,80.21
2022-10-11T10:54:03.213Z,80.21
2022-10-11T10:55:02.858Z,79.80
2022-10-11T10:56:03.259Z,79.00
2022-10-11T10:57:03.284Z,80.01
2022-10-11T10:58:03.297Z,81.52
2022-10-11T10:59:03.106Z,81.12
2022-10-11T11:00:03.685Z,80.21
2022-10-11T11:01:03.194Z,80.07
2022-10-11T11:02:16.047Z,80.78
2022-10-11T11:03:03.031Z,78.35
2022-10-11T11:04:03.359Z,78.75
2022-10-11T11:05:03.651Z,78.25
2022-10-11T11:06:04.040Z,78.25
2022-10-11T11:07:03.550Z,79.43
2022-10-11T11:08:03.591Z,77.81
2022-10-11T11:09:03.185Z,77.00
2022-10-11T11:10:03.831Z,77.20
2022-10-11T11:11:03.778Z,78.92
2022-10-11T11:12:03.629Z,78.38
2022-10-11T11:13:03.478Z,76.35
2022-10-11T11:14:03.493Z,75.10
2022-10-11T11:15:03.790Z,74.50
2022-10-11T11:16:04.176Z,76.82
2022-10-11T11:17:02.894Z,76.39
2022-10-11T11:18:03.001Z,75.31
2022-10-11T11:19:02.889Z,74.57
2022-10-11T11:20:02.543Z,74.66
2022-10-11T11:21:02.932Z,74.06
2022-10-11T11:22:03.433Z,74.46
2022-10-11T11:23:03.623Z,74.66
2022-10-11T11:24:03.615Z,73.05
2022-10-11T11:25:03.472Z,72.75
2022-10-11T11:26:03.904Z,73.79
2022-10-11T11:27:03.573Z,74.16
2022-10-11T11:28:03.256Z,76.08
2022-10-11T11:29:03.227Z,74.37
2022-10-11T11:30:03.402Z,73.32
2022-10-11T11:31:03.743Z,72.14
2022-10-11T11:32:03.727Z,73.66
2022-10-11T11:33:03.672Z,72.71
2022-10-11T11:34:03.448Z,73.93
2022-10-11T11:35:03.985Z,74.60
2022-10-11T11:36:03.850Z,72.34
2022-10-11T11:37:03.143Z,72.24
2022-10-11T11:38:06.375Z,71.91
2022-10-11T11:39:02.700Z,70.59
2022-10-11T11:40:03.231Z,71.70
2022-10-11T11:41:03.470Z,71.87
2022-10-11T11:42:03.805Z,70.26
2022-10-11T11:43:03.957Z,69.45
2022-10-11T11:44:03.598Z,70.66
2022-10-11T11:45:03.646Z,71.26
2022-10-11T11:46:03.737Z,69.79
2022-10-11T11:47:02.946Z,69.48
2022-10-11T11:48:03.363Z,71.20
2022-10-11T11:49:03.519Z,69.89
2022-10-11T11:50:03.026Z,71.47
2022-10-11T11:51:03.215Z,68.74
2022-10-11T11:52:03.458Z,68.65
2022-10-11T11:53:03.069Z,70.32
2022-10-11T11:54:03.019Z,69.82
2022-10-11T11:55:04.266Z,70.09
2022-10-11T11:56:03.593Z,68.18
2022-10-11T11:57:03.710Z,65.93
2022-10-11T11:58:07.097Z,65.83
2022-10-11T11:59:03.799Z,64.72
2022-10-11T12:00:03.455Z,65.16
2022-10-11T12:01:03.793Z,66.63
2022-10-11T12:02:02.758Z,66.43
2022-10-11T12:03:02.783Z,68.95
2022-10-11T12:04:02.215Z,65.80
2022-10-11T12:05:02.405Z,65.80
2022-10-11T12:06:02.306Z,64.96
2022-10-11T12:07:15.938Z,64.76
2022-10-11T12:08:02.706Z,65.84
2022-10-11T12:09:02.591Z,64.33
2022-10-11T12:10:02.835Z,63.93
2022-10-11T12:11:02.644Z,66.64
2022-10-11T12:12:02.858Z,64.10
2022-10-11T12:13:02.586Z,63.79
2022-10-11T12:14:02.815Z,63.39
2022-10-11T12:15:02.607Z,62.08
2022-10-11T12:16:02.777Z,64.10
2022-10-11T12:17:03.374Z,65.00
2022-10-11T12:18:03.271Z,61.49
2022-10-11T12:19:02.924Z,64.90
2022-10-11T12:20:03.464Z,64.30
2022-10-11T12:21:03.541Z,63.56
2022-10-11T12:22:02.892Z,62.66
2022-10-11T12:23:02.795Z,60.75
2022-10-11T12:24:02.624Z,61.46
2022-10-11T12:25:02.341Z,63.06
2022-10-11T12:26:02.524Z,61.15
2022-10-11T12:27:03.013Z,62.06
2022-10-11T12:28:02.848Z,60.15
2022-10-11T12:29:02.834Z,60.05
2022-10-11T12:30:02.434Z,62.56
2022-10-11T12:31:03.010Z,59.14
2022-10-11T12:32:03.451Z,59.55
2022-10-11T12:33:03.510Z,61.46
2022-10-11T12:34:03.401Z,60.05
2022-10-11T12:35:03.234Z,61.05
2022-10-11T12:36:05.851Z,59.78
2022-10-11T12:37:06.655Z,59.58
2022-10-11T12:38:03.583Z,60.00
2022-10-11T12:39:03.448Z,60.44
2022-10-11T12:40:03.369Z,60.94
2022-10-11T12:41:03.450Z,61.98
2022-10-11T12:42:05.853Z,62.98
2022-10-11T12:43:02.962Z,63.25
2022-10-11T12:44:03.023Z,62.24
2022-10-11T12:45:02.819Z,62.05
2022-10-11T12:46:03.588Z,62.52
2022-10-11T12:47:03.465Z,61.01
2022-10-11T12:48:02.936Z,60.61
2022-10-11T12:49:03.323Z,60.51
2022-10-11T12:50:03.136Z,60.58
2022-10-11T12:51:03.364Z,59.08
2022-10-11T12:52:03.834Z,60.21
2022-10-11T12:53:03.818Z,59.50